createdAt,value
2023-04-07T00:01:36.140Z,101451.69
2023-04-07T00:04:03.489Z,101460.78
2023-04-07T00:06:30.947Z,101453.75
2023-04-07T00:08:58.033Z,101461.72
2023-04-07T00:11:24.953Z,101460.16
2023-04-07T00:13:52.270Z,101455.78
2023-04-07T00:16:19.347Z,101462.97
2023-04-07T00:18:46.669Z,101468.19
2023-04-07T00:21:13.638Z,101457.81
2023-04-07T00:23:40.620Z,101463.91
2023-04-07T00:26:07.634Z,101468.59
2023-04-07T00:28:34.671Z,101467.66
2023-04-07T00:31:01.805Z,101466.03
2023-04-07T00:33:28.800Z,101473.28
2023-04-07T00:35:58.277Z,101460.94
2023-04-07T00:38:25.228Z,101466.41
2023-04-07T00:40:58.980Z,101469.06
2023-04-07T00:43:26.481Z,101464.69
2023-04-07T00:45:54.722Z,101467.47
2023-04-07T00:48:22.085Z,101469.28
2023-04-07T00:50:49.359Z,101461.41
2023-04-07T00:53:16.895Z,101467.63
2023-04-07T00:55:44.005Z,101461.66
2023-04-07T00:58:11.418Z,101467.78
2023-04-07T01:01:05.285Z,101468.75
2023-04-07T01:03:56.306Z,101461.72
2023-04-07T01:06:25.183Z,101459.06
2023-04-07T01:09:02.393Z,101474.09
2023-04-07T01:11:37.772Z,101473.28
2023-04-07T01:14:06.560Z,101470.63
2023-04-07T01:16:42.002Z,101467.09
2023-04-07T01:19:23.477Z,101471.53
2023-04-07T01:21:53.454Z,101470.63
2023-04-07T01:24:35.362Z,101484.81
2023-04-07T01:27:19.858Z,101476.22
2023-04-07T01:29:48.815Z,101472.56
2023-04-07T01:32:18.683Z,101477.88
2023-04-07T01:34:48.427Z,101475.13
2023-04-07T01:37:16.834Z,101482.16
2023-04-07T01:39:44.034Z,101483.94
2023-04-07T01:42:11.463Z,101479.50
2023-04-07T01:44:39.051Z,101483.94
2023-04-07T01:47:07.075Z,101478.59
2023-04-07T01:49:36.531Z,101482.16
2023-04-07T01:52:04.988Z,101489.25
2023-04-07T01:54:32.433Z,101489.19
2023-04-07T01:56:59.433Z,101494.31
2023-04-07T01:59:26.486Z,101493.50
2023-04-07T02:01:53.825Z,101487.31
2023-04-07T02:04:47.792Z,101498.59
2023-04-07T02:07:21.534Z,101495.13
2023-04-07T02:09:51.970Z,101498.69
2023-04-07T02:12:19.503Z,101501.19
2023-04-07T02:14:46.743Z,101495.91
2023-04-07T02:17:16.830Z,101498.47
2023-04-07T02:19:45.475Z,101502.94
2023-04-07T02:22:13.650Z,101495.91
2023-04-07T02:24:43.605Z,101494.97
2023-04-07T02:27:10.690Z,101499.31
2023-04-07T02:29:37.650Z,101504.63
2023-04-07T02:32:05.807Z,101502.06
2023-04-07T02:34:32.753Z,101495.91
2023-04-07T02:36:59.724Z,101501.97
2023-04-07T02:39:26.668Z,101510.81
2023-04-07T02:41:53.648Z,101509.88
2023-04-07T02:44:20.638Z,101515.09
2023-04-07T02:46:47.682Z,101509.78
2023-04-07T02:49:14.599Z,101505.59
2023-04-07T02:51:41.624Z,101518.66
2023-04-07T02:54:08.604Z,101513.34
2023-04-07T02:56:35.691Z,101515.09
2023-04-07T02:59:02.637Z,101514.16
2023-04-07T03:01:29.605Z,101516.81
2023-04-07T03:03:56.902Z,101521.16
2023-04-07T03:06:24.253Z,101520.31
2023-04-07T03:08:51.236Z,101526.47
2023-04-07T03:11:18.335Z,101518.50
2023-04-07T03:13:45.289Z,101521.06
2023-04-07T03:16:12.357Z,101521.97
2023-04-07T03:18:39.325Z,101519.31
2023-04-07T03:21:06.339Z,101523.69
2023-04-07T03:23:33.332Z,101523.69
2023-04-07T03:26:00.352Z,101520.19
2023-04-07T03:28:27.300Z,101527.13
2023-04-07T03:30:54.336Z,101528.84
2023-04-07T03:33:21.379Z,101523.69
2023-04-07T03:35:48.340Z,101530.75
2023-04-07T03:38:15.419Z,101533.41
2023-04-07T03:40:42.293Z,101537.75
2023-04-07T03:43:12.912Z,101527.94
2023-04-07T03:45:40.148Z,101532.28
2023-04-07T03:48:10.874Z,101531.44
2023-04-07T03:50:38.717Z,101543.78
2023-04-07T03:53:05.829Z,101546.50
2023-04-07T03:55:34.485Z,101548.22
2023-04-07T03:58:01.610Z,101553.50
2023-04-07T04:00:28.631Z,101541.19
2023-04-07T04:02:55.810Z,101552.59
2023-04-07T04:05:22.817Z,101558.81
2023-04-07T04:07:51.646Z,101557.91
2023-04-07T04:10:18.805Z,101560.63
2023-04-07T04:12:47.974Z,101559.69
2023-04-07T04:15:15.889Z,101572.09
2023-04-07T04:17:42.990Z,101578.34
2023-04-07T04:20:10.353Z,101580.06
2023-04-07T04:22:37.342Z,101581.69
2023-04-07T04:25:05.271Z,101578.88
2023-04-07T04:27:32.249Z,101577.88
2023-04-07T04:29:59.223Z,101581.63
2023-04-07T04:32:26.206Z,101582.88
2023-04-07T04:34:53.177Z,101590.34
2023-04-07T04:37:20.166Z,101598.16
2023-04-07T04:39:47.133Z,101606.94
2023-04-07T04:42:14.053Z,101603.34
2023-04-07T04:44:41.178Z,101611.53
2023-04-07T04:47:08.295Z,101612.56
2023-04-07T04:49:35.262Z,101614.44
2023-04-07T04:52:02.383Z,101619.75
2023-04-07T04:54:29.726Z,101625.34
2023-04-07T04:56:57.768Z,101627.53
2023-04-07T04:59:24.732Z,101622.50
2023-04-07T05:01:51.753Z,101629.88
2023-04-07T05:04:19.047Z,101628.19
2023-04-07T05:06:46.549Z,101630.00
2023-04-07T05:09:13.558Z,101630.16
2023-04-07T05:11:41.860Z,101638.28
2023-04-07T05:14:08.778Z,101647.28
2023-04-07T05:16:37.175Z,101651.72
2023-04-07T05:19:04.258Z,101656.38
2023-04-07T05:21:31.723Z,101664.78
2023-04-07T05:23:58.787Z,101667.00
2023-04-07T05:26:26.455Z,101673.72
2023-04-07T05:28:53.433Z,101678.00
2023-04-07T05:31:20.680Z,101682.50
2023-04-07T05:33:47.766Z,101683.41
2023-04-07T05:36:14.842Z,101682.63
2023-04-07T05:38:42.279Z,101687.94
2023-04-07T05:41:09.260Z,101688.09
2023-04-07T05:43:36.243Z,101689.88
2023-04-07T05:46:03.300Z,101690.88
2023-04-07T05:48:30.338Z,101695.44
2023-04-07T05:50:57.387Z,101698.94
2023-04-07T05:53:24.388Z,101697.25
2023-04-07T05:55:51.437Z,101705.13
2023-04-07T05:58:18.409Z,101702.41
2023-04-07T06:00:45.533Z,101701.56
2023-04-07T06:03:12.606Z,101708.53
2023-04-07T06:05:43.850Z,101706.66
2023-04-07T06:08:11.225Z,101713.63
2023-04-07T06:10:38.165Z,101710.97
2023-04-07T06:13:05.234Z,101711.81
2023-04-07T06:15:32.307Z,101714.41
2023-04-07T06:17:59.532Z,101723.22
2023-04-07T06:20:28.140Z,101714.22
2023-04-07T06:22:55.652Z,101710.94
2023-04-07T06:25:22.688Z,101714.81
2023-04-07T06:27:49.649Z,101727.94
2023-04-07T06:30:16.730Z,101720.78
2023-04-07T06:32:43.821Z,101729.66
2023-04-07T06:35:10.941Z,101725.72
2023-04-07T06:37:39.562Z,101728.22
2023-04-07T06:40:08.113Z,101726.09
2023-04-07T06:42:35.027Z,101733.97
2023-04-07T06:45:02.044Z,101738.28
2023-04-07T06:47:29.890Z,101736.41
2023-04-07T06:49:56.891Z,101740.75
2023-04-07T06:52:23.896Z,101745.09
2023-04-07T06:54:50.842Z,101749.47
2023-04-07T06:57:17.822Z,101749.34
2023-04-07T06:59:44.950Z,101752.78
2023-04-07T07:02:12.129Z,101753.56
2023-04-07T07:04:39.349Z,101757.94
2023-04-07T07:07:06.367Z,101758.72
2023-04-07T07:09:33.314Z,101757.72
2023-04-07T07:12:04.018Z,101755.06
2023-04-07T07:14:31.528Z,101757.63
2023-04-07T07:16:58.599Z,101754.91
2023-04-07T07:19:25.687Z,101754.00
2023-04-07T07:21:52.842Z,101756.47
2023-04-07T07:24:19.758Z,101755.53
2023-04-07T07:26:46.709Z,101757.19
2023-04-07T07:29:13.704Z,101750.94
2023-04-07T07:31:40.768Z,101763.22
2023-04-07T07:34:07.922Z,101765.94
2023-04-07T07:36:34.987Z,101770.22
2023-04-07T07:39:02.232Z,101772.84
2023-04-07T07:41:29.268Z,101768.38
2023-04-07T07:43:56.411Z,101768.28
2023-04-07T07:46:26.541Z,101771.81
2023-04-07T07:48:54.192Z,101774.31
2023-04-07T07:51:21.492Z,101776.03
2023-04-07T07:53:49.009Z,101786.59
2023-04-07T07:56:16.509Z,101783.84
2023-04-07T07:58:43.561Z,101783.72
2023-04-07T08:01:11.145Z,101777.38
2023-04-07T08:03:38.579Z,101781.69
2023-04-07T08:06:06.880Z,101782.41
2023-04-07T08:08:33.858Z,101781.28
2023-04-07T08:11:01.080Z,101786.47
2023-04-07T08:13:28.064Z,101785.38
2023-04-07T08:15:55.277Z,101789.59
2023-04-07T08:18:22.284Z,101794.00
2023-04-07T08:20:49.466Z,101793.03
2023-04-07T08:23:16.592Z,101795.53
2023-04-07T08:25:43.888Z,101800.69
2023-04-07T08:28:10.933Z,101797.91
2023-04-07T08:30:38.483Z,101797.91
2023-04-07T08:33:06.577Z,101795.09
2023-04-07T08:35:33.803Z,101794.94
2023-04-07T08:38:00.798Z,101793.88
2023-04-07T08:40:27.792Z,101796.38
2023-04-07T08:42:55.698Z,101794.50
2023-04-07T08:45:23.036Z,101788.09
2023-04-07T08:47:54.005Z,101799.50
2023-04-07T08:50:22.325Z,101805.53
2023-04-07T08:52:57.077Z,101805.38
2023-04-07T08:55:24.634Z,101804.50
2023-04-07T08:57:53.180Z,101805.28
2023-04-07T09:00:21.139Z,101811.38
2023-04-07T09:02:49.958Z,101812.25
2023-04-07T09:05:17.081Z,101810.34
2023-04-07T09:07:44.396Z,101810.16
2023-04-07T09:10:11.957Z,101809.34
2023-04-07T09:12:39.571Z,101806.78
2023-04-07T09:15:08.224Z,101809.19
2023-04-07T09:17:35.588Z,101810.75
2023-04-07T09:20:03.428Z,101808.72
2023-04-07T09:22:42.886Z,101808.41
2023-04-07T09:25:23.125Z,101816.13
2023-04-07T09:28:01.750Z,101805.25
2023-04-07T09:30:33.132Z,101809.47
2023-04-07T09:33:01.393Z,101805.84
2023-04-07T09:35:28.998Z,101798.44
2023-04-07T09:38:09.189Z,101800.94
2023-04-07T09:40:38.120Z,101807.88
2023-04-07T09:43:06.353Z,101806.75
2023-04-07T09:45:36.558Z,101810.19
2023-04-07T09:48:09.218Z,101810.91
2023-04-07T09:50:40.270Z,101811.66
2023-04-07T09:53:07.505Z,101811.59
2023-04-07T09:55:40.133Z,101806.94
2023-04-07T09:58:07.896Z,101808.69
2023-04-07T10:00:35.962Z,101812.22
2023-04-07T10:03:04.699Z,101811.13
2023-04-07T10:05:32.157Z,101809.16
2023-04-07T10:07:59.492Z,101811.66
2023-04-07T10:10:29.106Z,101802.75
2023-04-07T10:13:01.111Z,101803.56
2023-04-07T10:15:28.294Z,101804.38
2023-04-07T10:17:57.306Z,101805.22
2023-04-07T10:20:24.988Z,101804.09
2023-04-07T10:22:56.129Z,101804.81
2023-04-07T10:25:25.071Z,101801.88
2023-04-07T10:28:07.231Z,101801.00
2023-04-07T10:30:35.527Z,101801.72
2023-04-07T10:33:02.823Z,101808.56
2023-04-07T10:36:06.628Z,101803.78
2023-04-07T10:38:34.036Z,101799.13
2023-04-07T10:41:01.264Z,101805.22
2023-04-07T10:43:47.102Z,101803.53
2023-04-07T10:46:14.295Z,101801.56
2023-04-07T10:48:41.398Z,101805.66
2023-04-07T10:51:11.094Z,101809.09
2023-04-07T10:53:38.783Z,101810.75
2023-04-07T10:56:06.203Z,101806.88
2023-04-07T10:58:34.110Z,101811.84
2023-04-07T11:01:01.449Z,101815.09
2023-04-07T11:03:30.889Z,101809.59
2023-04-07T11:06:24.758Z,101816.84
2023-04-07T11:08:52.024Z,101810.13
2023-04-07T11:11:40.267Z,101810.81
2023-04-07T11:14:07.637Z,101819.22
2023-04-07T11:16:39.686Z,101813.13
2023-04-07T11:19:07.022Z,101810.97
2023-04-07T11:21:34.176Z,101810.97
2023-04-07T11:24:01.296Z,101808.19
2023-04-07T11:26:28.428Z,101815.72
2023-04-07T11:28:57.993Z,101820.53
2023-04-07T11:31:30.336Z,101826.16
2023-04-07T11:33:59.791Z,101819.44
2023-04-07T11:36:29.262Z,101824.31
2023-04-07T11:38:58.503Z,101814.69
2023-04-07T11:41:30.974Z,101821.88
2023-04-07T11:44:26.783Z,101813.28
2023-04-07T11:47:00.196Z,101816.94
2023-04-07T11:49:29.108Z,101818.38
2023-04-07T11:52:04.488Z,101812.84
2023-04-07T11:54:47.473Z,101814.25
2023-04-07T11:57:15.211Z,101816.66
2023-04-07T11:59:42.621Z,101813.41
2023-04-07T12:02:10.267Z,101813.06
2023-04-07T12:04:40.602Z,101810.81
2023-04-07T12:07:12.217Z,101814.06
2023-04-07T12:09:39.231Z,101814.50
2023-04-07T12:12:10.907Z,101808.88
2023-04-07T12:14:38.273Z,101805.19
2023-04-07T12:17:05.462Z,101805.63
2023-04-07T12:19:39.962Z,101800.97
2023-04-07T12:22:06.931Z,101811.09
2023-04-07T12:24:34.189Z,101801.34
2023-04-07T12:27:01.207Z,101805.28
2023-04-07T12:29:28.615Z,101806.31
2023-04-07T12:31:56.772Z,101812.66
2023-04-07T12:34:23.911Z,101797.81
2023-04-07T12:36:51.182Z,101803.91
2023-04-07T12:39:18.218Z,101808.19
2023-04-07T12:41:55.149Z,101810.97
2023-04-07T12:44:22.355Z,101807.53
2023-04-07T12:46:49.348Z,101799.59
2023-04-07T12:49:17.119Z,101808.47
2023-04-07T12:51:44.070Z,101795.41
2023-04-07T12:54:11.242Z,101806.06
2023-04-07T12:56:38.261Z,101809.78
2023-04-07T12:59:05.443Z,101800.91
2023-04-07T13:01:36.190Z,101801.78
2023-04-07T13:04:03.664Z,101798.09
2023-04-07T13:06:31.254Z,101789.41
2023-04-07T13:08:58.356Z,101792.22
2023-04-07T13:11:26.074Z,101791.03
2023-04-07T13:13:55.045Z,101794.44
2023-04-07T13:16:24.342Z,101790.56
2023-04-07T13:18:51.744Z,101793.94
2023-04-07T13:23:50.918Z,101790.31
2023-04-07T13:26:17.975Z,101785.81
2023-04-07T13:28:46.488Z,101788.44
2023-04-07T13:31:16.561Z,101790.31
2023-04-07T13:33:43.840Z,101783.28
2023-04-07T13:36:11.156Z,101781.38
2023-04-07T13:38:38.235Z,101785.81
2023-04-07T13:41:05.450Z,101790.84
2023-04-07T13:43:33.006Z,101783.97
2023-04-07T13:46:00.114Z,101786.00
2023-04-07T13:48:27.457Z,101789.63
2023-04-07T13:50:54.453Z,101781.91
2023-04-07T13:53:22.163Z,101787.31
2023-04-07T13:55:49.224Z,101777.59
2023-04-07T13:58:17.407Z,101781.28
2023-04-07T14:00:44.751Z,101782.16
2023-04-07T14:03:12.077Z,101781.13
2023-04-07T14:05:39.320Z,101783.53
2023-04-07T14:08:06.529Z,101780.34
2023-04-07T14:10:34.456Z,101778.84
2023-04-07T14:13:04.317Z,101775.38
2023-04-07T14:15:32.134Z,101772.88
2023-04-07T14:18:00.356Z,101775.13
2023-04-07T14:20:27.499Z,101778.28
2023-04-07T14:22:55.204Z,101784.19
2023-04-07T14:25:22.940Z,101771.59
2023-04-07T14:27:50.004Z,101774.53
2023-04-07T14:30:17.091Z,101779.88
2023-04-07T14:32:44.366Z,101779.06
2023-04-07T14:35:11.599Z,101774.63
2023-04-07T14:37:38.936Z,101772.88
2023-04-07T14:40:07.738Z,101780.88
2023-04-07T14:42:36.111Z,101781.84
2023-04-07T14:45:03.256Z,101789.06
2023-04-07T14:47:30.583Z,101784.84
2023-04-07T14:49:57.768Z,101792.59
2023-04-07T14:52:25.219Z,101793.47
2023-04-07T14:54:52.317Z,101782.81
2023-04-07T14:57:19.516Z,101788.13
2023-04-07T14:59:48.109Z,101786.41
2023-04-07T15:02:15.321Z,101790.91
2023-04-07T15:04:42.607Z,101787.38
2023-04-07T15:07:09.983Z,101787.44
2023-04-07T15:09:37.429Z,101794.75
2023-04-07T15:12:05.539Z,101791.41
2023-04-07T15:14:32.752Z,101791.50
2023-04-07T15:16:59.862Z,101788.13
2023-04-07T15:19:26.940Z,101790.97
2023-04-07T15:21:54.143Z,101791.91
2023-04-07T15:24:22.563Z,101793.72
2023-04-07T15:26:50.375Z,101791.06
2023-04-07T15:29:17.589Z,101797.50
2023-04-07T15:31:44.915Z,101802.06
2023-04-07T15:34:13.179Z,101812.09
2023-04-07T15:36:40.730Z,101802.66
2023-04-07T15:39:07.851Z,101811.91
2023-04-07T15:41:34.868Z,101808.81
2023-04-07T15:44:03.271Z,101808.81
2023-04-07T15:46:32.473Z,101804.09
2023-04-07T15:49:00.438Z,101814.25
2023-04-07T15:51:30.105Z,101806.88
2023-04-07T15:53:57.128Z,101813.13
2023-04-07T15:56:25.094Z,101813.31
2023-04-07T15:58:52.520Z,101822.25
2023-04-07T16:01:19.918Z,101822.31
2023-04-07T16:03:48.416Z,101822.31
2023-04-07T16:06:15.827Z,101824.91
2023-04-07T16:08:42.859Z,101831.16
2023-04-07T16:11:09.870Z,101832.91
2023-04-07T16:13:36.987Z,101832.91
2023-04-07T16:16:04.237Z,101833.06
2023-04-07T16:18:31.244Z,101834.94
2023-04-07T16:21:03.658Z,101844.47
2023-04-07T16:23:31.514Z,101844.72
2023-04-07T16:25:58.505Z,101845.31
2023-04-07T16:28:25.938Z,101839.13
2023-04-07T16:30:53.039Z,101847.34
2023-04-07T16:33:20.028Z,101843.16
2023-04-07T16:35:47.248Z,101849.34
2023-04-07T16:38:14.654Z,101842.47
2023-04-07T16:40:47.896Z,101851.06
2023-04-07T16:43:20.580Z,101852.78
2023-04-07T16:45:51.776Z,101856.41
2023-04-07T16:48:19.116Z,101858.28
2023-04-07T16:50:48.061Z,101863.63
2023-04-07T16:53:18.901Z,101861.88
2023-04-07T16:55:46.486Z,101862.41
2023-04-07T16:58:13.658Z,101866.06
2023-04-07T17:00:40.793Z,101869.25
2023-04-07T17:03:08.015Z,101864.69
2023-04-07T17:05:35.186Z,101867.50
2023-04-07T17:08:02.437Z,101881.06
2023-04-07T17:10:29.567Z,101866.75
2023-04-07T17:12:57.011Z,101875.53
2023-04-07T17:15:27.071Z,101883.16
2023-04-07T17:17:54.275Z,101895.88
2023-04-07T17:20:23.040Z,101897.91
2023-04-07T17:22:50.100Z,101894.53
2023-04-07T17:25:18.981Z,101897.66
2023-04-07T17:27:48.378Z,101905.16
2023-04-07T17:30:15.695Z,101900.84
2023-04-07T17:32:42.783Z,101911.72
2023-04-07T17:35:09.994Z,101914.25
2023-04-07T17:37:38.941Z,101917.00
2023-04-07T17:40:06.928Z,101906.34
2023-04-07T17:42:33.924Z,101917.91
2023-04-07T17:45:02.200Z,101907.19
2023-04-07T17:47:29.679Z,101915.88
2023-04-07T17:49:56.790Z,101910.66
2023-04-07T17:52:23.933Z,101913.53
2023-04-07T17:54:51.354Z,101919.56
2023-04-07T17:57:19.613Z,101915.00
2023-04-07T17:59:48.355Z,101921.78
2023-04-07T18:02:15.442Z,101921.22
2023-04-07T18:04:42.722Z,101922.72
2023-04-07T18:07:13.035Z,101928.66
2023-04-07T18:09:43.313Z,101928.41
2023-04-07T18:12:10.818Z,101929.03
2023-04-07T18:14:40.698Z,101936.69
2023-04-07T18:17:07.799Z,101930.19
2023-04-07T18:19:35.278Z,101937.88
2023-04-07T18:22:02.439Z,101938.44
2023-04-07T18:24:30.046Z,101948.75
2023-04-07T18:26:57.666Z,101948.50
2023-04-07T18:29:25.266Z,101944.97
2023-04-07T18:31:52.493Z,101944.81
2023-04-07T18:34:19.681Z,101950.69
2023-04-07T18:36:48.107Z,101952.25
2023-04-07T18:39:17.079Z,101962.56
2023-04-07T18:41:45.900Z,101957.25
2023-04-07T18:44:13.739Z,101957.00
2023-04-07T18:46:44.543Z,101957.44
2023-04-07T18:49:11.785Z,101957.88
2023-04-07T18:51:39.411Z,101955.81
2023-04-07T18:54:06.865Z,101955.50
2023-04-07T18:56:34.109Z,101965.03
2023-04-07T18:59:01.738Z,101971.91
2023-04-07T19:01:29.105Z,101974.41
2023-04-07T19:03:58.061Z,101976.94
2023-04-07T19:06:25.341Z,101978.63
2023-04-07T19:08:52.807Z,101977.59
2023-04-07T19:11:20.286Z,101976.66
2023-04-07T19:13:48.762Z,101978.16
2023-04-07T19:16:16.255Z,101985.78
2023-04-07T19:18:44.685Z,101990.88
2023-04-07T19:21:13.884Z,101997.59
2023-04-07T19:23:43.877Z,101994.75
2023-04-07T19:26:12.301Z,101996.22
2023-04-07T19:28:41.762Z,101987.25
2023-04-07T19:31:09.850Z,101996.06
2023-04-07T19:33:38.272Z,101992.25
2023-04-07T19:36:06.114Z,101994.16
2023-04-07T19:38:33.341Z,101996.53
2023-04-07T19:41:00.479Z,101992.78
2023-04-07T19:43:27.669Z,101997.13
2023-04-07T19:45:56.503Z,102002.41
2023-04-07T19:48:23.896Z,101998.00
2023-04-07T19:50:52.938Z,102008.59
2023-04-07T19:53:20.409Z,101997.72
2023-04-07T19:55:49.734Z,102003.00
2023-04-07T19:58:19.197Z,102011.69
2023-04-07T20:00:50.177Z,102004.53
2023-04-07T20:03:20.190Z,102010.50
2023-04-07T20:05:48.580Z,102006.84
2023-04-07T20:08:16.101Z,102015.56
2023-04-07T20:10:43.459Z,102018.28
2023-04-07T20:13:13.781Z,102012.78
2023-04-07T20:15:41.607Z,102010.09
2023-04-07T20:18:09.503Z,102017.19
2023-04-07T20:20:37.345Z,102007.38
2023-04-07T20:23:05.002Z,102009.44
2023-04-07T20:25:34.263Z,102013.16
2023-04-07T20:28:01.682Z,102012.19
2023-04-07T20:30:28.974Z,102016.59
2023-04-07T20:32:56.406Z,102021.06
2023-04-07T20:35:24.723Z,102015.81
2023-04-07T20:37:51.947Z,102019.44
2023-04-07T20:40:21.049Z,102024.94
2023-04-07T20:42:48.759Z,102024.94
2023-04-07T20:45:16.489Z,102033.88
2023-04-07T20:47:44.074Z,102025.03
2023-04-07T20:50:11.787Z,102025.22
2023-04-07T20:52:41.735Z,102034.41
2023-04-07T20:55:10.072Z,102028.56
2023-04-07T20:57:38.444Z,102027.03
2023-04-07T21:00:07.036Z,102021.75
2023-04-07T21:02:35.578Z,102028.13
2023-04-07T21:05:04.376Z,102029.09
2023-04-07T21:07:32.015Z,102032.78
2023-04-07T21:09:59.352Z,102027.53
2023-04-07T21:12:26.957Z,102033.72
2023-04-07T21:14:54.074Z,102032.88
2023-04-07T21:17:21.256Z,102026.66
2023-04-07T21:19:48.426Z,102028.56
2023-04-07T21:22:15.737Z,102033.13
2023-04-07T21:24:42.912Z,102028.72
2023-04-07T21:27:12.267Z,102035.78
2023-04-07T21:29:42.821Z,102034.16
2023-04-07T21:32:10.921Z,102030.63
2023-04-07T21:34:38.136Z,102032.53
2023-04-07T21:37:05.241Z,102040.59
2023-04-07T21:39:37.034Z,102037.09
2023-04-07T21:42:04.135Z,102040.41
2023-04-07T21:44:31.922Z,102049.66
2023-04-07T21:46:59.349Z,102041.91
2023-04-07T21:49:26.483Z,102046.22
2023-04-07T21:51:54.098Z,102042.59
2023-04-07T21:54:21.271Z,102047.94
2023-04-07T21:56:49.515Z,102040.91
2023-04-07T21:59:17.934Z,102044.50
2023-04-07T22:01:47.429Z,102048.09
2023-04-07T22:04:14.978Z,102054.44
2023-04-07T22:06:42.426Z,102056.19
2023-04-07T22:09:10.701Z,102053.59
2023-04-07T22:11:38.106Z,102048.25
2023-04-07T22:14:05.497Z,102056.25
2023-04-07T22:16:32.682Z,102058.91
2023-04-07T22:19:00.038Z,102058.09
2023-04-07T22:21:27.784Z,102056.44
2023-04-07T22:23:55.585Z,102053.78
2023-04-07T22:26:22.755Z,102057.38
2023-04-07T22:28:49.993Z,102062.72
2023-04-07T22:31:17.133Z,102052.13
2023-04-07T22:33:44.371Z,102055.75
2023-04-07T22:36:11.823Z,102055.81
2023-04-07T22:38:38.877Z,102062.16
2023-04-07T22:41:05.987Z,102064.00
2023-04-07T22:43:33.268Z,102060.47
2023-04-07T22:46:00.403Z,102065.00
2023-04-07T22:48:28.612Z,102063.34
2023-04-07T22:50:56.082Z,102061.72
2023-04-07T22:53:23.183Z,102063.53
2023-04-07T22:55:51.206Z,102061.81
2023-04-07T22:58:18.353Z,102061.03
2023-04-07T23:00:46.381Z,102068.16
2023-04-07T23:03:15.401Z,102072.72
2023-04-07T23:05:42.650Z,102069.19
2023-04-07T23:08:09.679Z,102064.00
2023-04-07T23:10:36.857Z,102065.03
2023-04-07T23:13:03.890Z,102067.69
2023-04-07T23:15:31.066Z,102065.19
2023-04-07T23:17:58.289Z,102075.94
2023-04-07T23:20:25.568Z,102065.34
2023-04-07T23:22:52.679Z,102068.97
2023-04-07T23:25:20.754Z,102071.69
2023-04-07T23:27:47.761Z,102068.16
2023-04-07T23:30:14.840Z,102060.50
2023-04-07T23:32:42.304Z,102064.81
2023-04-07T23:35:09.975Z,102063.09
2023-04-07T23:37:37.246Z,102058.69
2023-04-07T23:40:06.030Z,102066.78
2023-04-07T23:42:33.040Z,102062.47
2023-04-07T23:45:00.047Z,102062.63
2023-04-07T23:47:27.444Z,102055.56
2023-04-07T23:49:54.859Z,102059.25
2023-04-07T23:52:22.446Z,102065.44
2023-04-07T23:54:49.442Z,102065.59
2023-04-07T23:57:16.549Z,102073.66
2023-04-07T23:59:43.534Z,102064.91
